Аэропорт: Минеральные Воды. Минеральные Воды

ICAO: URMM

METAR:
2018/07/16 19:30
URMM 161930Z VRB01MPS 9999 FEW059 21/14 Q1007 R30/090070 NOSIG RMK QFE727/0970
METAR:
2018/07/16 18:21
TAF URMM 161700Z 1618/1718 28003G08MPS 9999 BKN030 TX30/1712Z TN20/1702Z 
      TEMPO 1712/1718 VRB07G12MPS 3100 -SHRA BKN011 BKN030CB